Time;durP1;ratioP1;P1;durP2;ratioP2;P2;SDS_P1;SDS_P2;PMS_P1;PMS_P2;Temp;Humidity;BMP_temperature;BMP_pressure;BME280_temperature;BME280_humidity;BME280_pressure;Samples;Min_cycle;Max_cycle;Signal;HPM_P1;HPM_P2
2023/07/15 00:00:39;;;;;;;;;;;;;;;;;;4912818;29;20365;-80
2023/07/15 00:03:11;;;;;;;;;;;;;;;;;;4898299;29;19934;-81
2023/07/15 00:05:39;;;;;;;;;;;;;;;;;;4914119;29;20312;-80
2023/07/15 00:08:07;;;;;;;;;;;;;;;;;;4897242;29;19927;-80
2023/07/15 00:10:35;;;;;;;;;;;;;;;;;;4896009;29;19986;-80
2023/07/15 00:13:07;;;;;;;;;;;;;;;;;;4913287;29;19927;-80
2023/07/15 00:15:35;;;;;;;;;;;;;;;;;;4895562;29;19931;-80
2023/07/15 00:18:03;;;;;;;;;;;;;;;;;;4897107;29;19966;-80
2023/07/15 00:20:30;;;;;;;;;;;;;;;;;;4914075;29;19938;-81
2023/07/15 00:23:03;;;;;;;;;;;;;;;;;;4913278;29;19927;-80
2023/07/15 00:25:32;;;;;;;;;;;;;;;;;;4897557;29;19938;-80
2023/07/15 00:28:05;;;;;;;;;;;;;;;;;;4896552;29;19931;-80
2023/07/15 00:30:32;;;;;;;;;;;;;;;;;;4910647;29;20369;-80
2023/07/15 00:33:00;;;;;;;;;;;;;;;;;;4896743;29;19931;-80
2023/07/15 00:35:32;;;;;;;;;;;;;;;;;;4897631;29;19933;-80
2023/07/15 00:38:05;;;;;;;;;;;;;;;;;;4913427;29;19938;-80
2023/07/15 00:40:33;;;;;;;;;;;;;;;;;;4896447;29;19927;-81
2023/07/15 00:43:00;;;;;;;;;;;;;;;;;;4896449;29;19931;-81
2023/07/15 00:45:29;;;;;;;;;;;;;;;;;;4914176;29;19927;-81
2023/07/15 00:48:02;;;;;;;;;;;;;;;;;;4912101;29;20360;-81
2023/07/15 00:50:38;;;;;;;;;;;;;;;;;;4912908;29;20004;-81
2023/07/15 00:53:06;;;;;;;;;;;;;;;;;;4913960;29;19927;-80
2023/07/15 00:55:34;;;;;;;;;;;;;;;;;;4913465;29;20403;-81
2023/07/15 00:58:03;;;;;;;;;;;;;;;;;;4896246;29;19931;-80
2023/07/15 01:00:31;;;;;;;;;;;;;;;;;;4914674;29;19931;-81
2023/07/15 01:03:04;;;;;;;;;;;;;;;;;;4914347;29;20423;-81
2023/07/15 01:05:38;;;;;;;;;;;;;;;;;;4896797;29;19941;-80
2023/07/15 01:08:11;;;;;;;;;;;;;;;;;;4904704;29;20391;-80
2023/07/15 01:10:43;;;;;;;;;;;;;;;;;;4896800;29;19931;-80
2023/07/15 01:13:12;;;;;;;;;;;;;;;;;;4896668;29;20312;-80
2023/07/15 01:15:39;;;;;;;;;;;;;;;;;;4913924;29;20411;-80
2023/07/15 01:18:07;;;;;;;;;;;;;;;;;;4912000;29;19985;-80
2023/07/15 01:20:40;;;;;;;;;;;;;;;;;;4912363;29;19930;-80
2023/07/15 01:23:07;;;;;;;;;;;;;;;;;;4913413;29;19938;-80
2023/07/15 01:25:40;;;;;;;;;;;;;;;;;;4896249;29;20372;-80
2023/07/15 01:28:07;;;;;;;;;;;;;;;;;;4895537;29;20292;-80
2023/07/15 01:30:35;;;;;;;;;;;;;;;;;;4894995;29;20610;-80
2023/07/15 01:33:07;;;;;;;;;;;;;;;;;;4904215;29;19927;-80
2023/07/15 01:35:35;;;;;;;;;;;;;;;;;;4912438;29;19947;-80
2023/07/15 01:38:03;;;;;;;;;;;;;;;;;;4895040;29;19946;-80
2023/07/15 01:40:36;;;;;;;;;;;;;;;;;;4897245;29;19931;-80
2023/07/15 01:43:04;;;;;;;;;;;;;;;;;;4911802;29;19934;-80
2023/07/15 01:45:32;;;;;;;;;;;;;;;;;;4913168;29;19934;-80
2023/07/15 01:48:00;;;;;;;;;;;;;;;;;;4911835;29;19931;-80
2023/07/15 01:50:28;;;;;;;;;;;;;;;;;;4896672;29;19931;-81
2023/07/15 01:53:00;;;;;;;;;;;;;;;;;;4895217;29;19934;-80
2023/07/15 01:55:33;;;;;;;;;;;;;;;;;;4894994;29;19931;-80
2023/07/15 01:58:02;;;;;;;;;;;;;;;;;;4911724;29;19934;-80
2023/07/15 02:00:29;;;;;;;;;;;;;;;;;;4912080;29;19934;-80
2023/07/15 02:03:02;;;;;;;;;;;;;;;;;;4899704;29;20384;-80
2023/07/15 02:05:30;;;;;;;;;;;;;;;;;;4896356;29;19927;-80
2023/07/15 02:07:59;;;;;;;;;;;;;;;;;;4897014;29;19927;-80
2023/07/15 02:10:26;;;;;;;;;;;;;;;;;;4911041;29;20300;-80
2023/07/15 02:12:54;;;;;;;;;;;;;;;;;;4895471;29;19934;-81
2023/07/15 02:15:27;;;;;;;;;;;;;;;;;;4909654;29;20463;-80
2023/07/15 02:17:54;;;;;;;;;;;;;;;;;;4907184;29;19962;-80
2023/07/15 02:20:23;;;;;;;;;;;;;;;;;;4912545;29;19935;-80
2023/07/15 02:22:52;;;;;;;;;;;;;;;;;;4913100;29;19970;-81
2023/07/15 02:25:20;;;;;;;;;;;;;;;;;;4913086;29;19927;-80
2023/07/15 02:27:48;;;;;;;;;;;;;;;;;;4895122;29;19931;-80
2023/07/15 02:30:15;;;;;;;;;;;;;;;;;;4909817;29;19934;-81
2023/07/15 02:32:43;;;;;;;;;;;;;;;;;;4916942;29;19934;-80
2023/07/15 02:35:10;;;;;;;;;;;;;;;;;;4899991;29;20327;-80
2023/07/15 02:37:38;;;;;;;;;;;;;;;;;;4914986;29;19927;-80
2023/07/15 02:40:06;;;;;;;;;;;;;;;;;;4915806;29;19938;-80
2023/07/15 02:42:34;;;;;;;;;;;;;;;;;;4914705;29;19927;-80
2023/07/15 02:45:06;;;;;;;;;;;;;;;;;;4899653;29;20866;-81
2023/07/15 02:47:40;;;;;;;;;;;;;;;;;;4899246;29;19934;-81
2023/07/15 02:50:07;;;;;;;;;;;;;;;;;;4898141;29;19943;-80
2023/07/15 02:52:35;;;;;;;;;;;;;;;;;;4900473;29;20391;-80
2023/07/15 02:55:03;;;;;;;;;;;;;;;;;;4899077;29;19935;-80
2023/07/15 02:57:31;;;;;;;;;;;;;;;;;;4898116;29;19931;-80
2023/07/15 02:59:58;;;;;;;;;;;;;;;;;;4899310;29;19934;-81
2023/07/15 03:02:28;;;;;;;;;;;;;;;;;;4897262;29;19935;-81
2023/07/15 03:04:55;;;;;;;;;;;;;;;;;;4898734;29;20384;-81
2023/07/15 03:07:24;;;;;;;;;;;;;;;;;;4915130;29;19931;-80
2023/07/15 03:09:51;;;;;;;;;;;;;;;;;;4913213;29;19942;-80
2023/07/15 03:12:19;;;;;;;;;;;;;;;;;;4901482;29;19934;-80
2023/07/15 03:14:47;;;;;;;;;;;;;;;;;;4901058;29;19942;-80
2023/07/15 03:17:21;;;;;;;;;;;;;;;;;;4898208;29;19934;-80
2023/07/15 03:19:49;;;;;;;;;;;;;;;;;;4898829;29;19962;-80
2023/07/15 03:22:16;;;;;;;;;;;;;;;;;;4915623;29;20457;-81
2023/07/15 03:24:46;;;;;;;;;;;;;;;;;;4898548;29;19935;-80
2023/07/15 03:27:19;;;;;;;;;;;;;;;;;;4914032;29;19931;-81
2023/07/15 03:29:49;;;;;;;;;;;;;;;;;;4898639;29;19931;-81
2023/07/15 03:32:16;;;;;;;;;;;;;;;;;;4898264;29;19938;-81
2023/07/15 03:34:44;;;;;;;;;;;;;;;;;;4913187;29;19927;-81
2023/07/15 03:37:11;;;;;;;;;;;;;;;;;;4915526;29;20335;-81
2023/07/15 03:39:44;;;;;;;;;;;;;;;;;;4912610;29;19927;-81
2023/07/15 03:42:17;;;;;;;;;;;;;;;;;;4896588;29;19982;-81
2023/07/15 03:44:44;;;;;;;;;;;;;;;;;;4897286;29;19934;-81
2023/07/15 03:47:12;;;;;;;;;;;;;;;;;;4899096;29;19931;-81
2023/07/15 03:49:39;;;;;;;;;;;;;;;;;;4899092;29;19938;-81
2023/07/15 03:52:07;;;;;;;;;;;;;;;;;;4898615;29;20274;-81
2023/07/15 03:54:34;;;;;;;;;;;;;;;;;;4913928;29;19931;-81
2023/07/15 03:57:02;;;;;;;;;;;;;;;;;;4896750;29;19932;-81
2023/07/15 03:59:30;;;;;;;;;;;;;;;;;;4897133;29;20375;-81
2023/07/15 04:01:57;;;;;;;;;;;;;;;;;;4897190;29;19931;-80
2023/07/15 04:04:25;;;;;;;;;;;;;;;;;;4914667;29;19928;-81
2023/07/15 04:06:52;;;;;;;;;;;;;;;;;;4916021;29;20434;-80
2023/07/15 04:09:20;;;;;;;;;;;;;;;;;;4912981;29;19927;-80
2023/07/15 04:11:53;;;;;;;;;;;;;;;;;;4897998;29;19931;-81
2023/07/15 04:14:25;;;;;;;;;;;;;;;;;;4897764;29;19934;-81
2023/07/15 04:16:53;;;;;;;;;;;;;;;;;;4912086;29;20277;-80
2023/07/15 04:19:20;;;;;;;;;;;;;;;;;;4913710;29;19928;-81
2023/07/15 04:21:48;;;;;;;;;;;;;;;;;;4898207;29;19927;-81
2023/07/15 04:24:15;;;;;;;;;;;;;;;;;;4914770;29;19931;-81
2023/07/15 04:26:43;;;;;;;;;;;;;;;;;;4898341;29;19927;-81
2023/07/15 04:29:16;;;;;;;;;;;;;;;;;;4909730;29;20257;-81
2023/07/15 04:31:44;;;;;;;;;;;;;;;;;;4897108;29;20300;-81
2023/07/15 04:34:11;;;;;;;;;;;;;;;;;;4913579;29;19931;-81
2023/07/15 04:36:39;;;;;;;;;;;;;;;;;;4915104;29;19945;-80
2023/07/15 04:39:07;;;;;;;;;;;;;;;;;;4914463;29;20555;-80
2023/07/15 04:41:39;;;;;;;;;;;;;;;;;;4911747;29;19935;-82
2023/07/15 04:44:12;;;;;;;;;;;;;;;;;;4906329;29;19931;-80
2023/07/15 04:46:39;;;;;;;;;;;;;;;;;;4895565;29;19942;-79
2023/07/15 04:49:07;;;;;;;;;;;;;;;;;;4913408;29;19938;-80
2023/07/15 04:51:34;;;;;;;;;;;;;;;;;;4896718;29;19931;-80
2023/07/15 04:54:02;;;;;;;;;;;;;;;;;;4895742;29;19927;-80
2023/07/15 04:56:35;;;;;;;;;;;;;;;;;;4896664;29;19927;-80
2023/07/15 04:59:02;;;;;;;;;;;;;;;;;;4913537;29;19931;-80
2023/07/15 05:01:30;;;;;;;;;;;;;;;;;;4894273;29;19932;-80
2023/07/15 05:03:59;;;;;;;;;;;;;;;;;;4907235;29;19932;-80
2023/07/15 05:06:32;;;;;;;;;;;;;;;;;;4911381;29;19927;-80
2023/07/15 05:09:00;;;;;;;;;;;;;;;;;;4912103;29;19927;-81
2023/07/15 05:11:28;;;;;;;;;;;;;;;;;;4912304;29;19938;-80
2023/07/15 05:13:56;;;;;;;;;;;;;;;;;;4908218;29;19936;-80
2023/07/15 05:16:24;;;;;;;;;;;;;;;;;;4913684;29;19970;-81
2023/07/15 05:18:51;;;;;;;;;;;;;;;;;;4911523;29;20300;-81
2023/07/15 05:21:24;;;;;;;;;;;;;;;;;;4897349;29;19934;-81
2023/07/15 05:23:51;;;;;;;;;;;;;;;;;;4912773;29;19935;-81
2023/07/15 05:26:24;;;;;;;;;;;;;;;;;;4912183;29;19939;-81
2023/07/15 05:28:51;;;;;;;;;;;;;;;;;;4908747;29;19927;-81
2023/07/15 05:31:19;;;;;;;;;;;;;;;;;;4896248;29;19931;-81
2023/07/15 05:33:47;;;;;;;;;;;;;;;;;;4911615;29;19931;-81
2023/07/15 05:39:02;;;;;;;;;;;;;;;;;;4927105;23;19928;-92
2023/07/15 05:41:32;;;;;;;;;;;;;;;;;;4882257;29;19935;-91
2023/07/15 05:44:00;;;;;;;;;;;;;;;;;;4890355;29;20538;-92
2023/07/15 05:46:27;;;;;;;;;;;;;;;;;;4883783;29;19931;-92
2023/07/15 05:48:55;;;;;;;;;;;;;;;;;;4887043;29;19935;-93
2023/07/15 05:51:23;;;;;;;;;;;;;;;;;;4910059;29;19934;-90
2023/07/15 05:53:51;;;;;;;;;;;;;;;;;;4904110;29;19928;-91
2023/07/15 05:56:19;;;;;;;;;;;;;;;;;;4897150;29;19928;-92
2023/07/15 05:58:46;;;;;;;;;;;;;;;;;;4905880;29;19932;-91
2023/07/15 06:01:14;;;;;;;;;;;;;;;;;;4901917;29;19927;-92
2023/07/15 06:03:42;;;;;;;;;;;;;;;;;;4900075;29;19935;-92
2023/07/15 06:06:10;;;;;;;;;;;;;;;;;;4903711;29;19931;-91
2023/07/15 06:08:38;;;;;;;;;;;;;;;;;;4896275;29;19950;-90
2023/07/15 06:11:06;;;;;;;;;;;;;;;;;;4909118;29;21262;-91
2023/07/15 06:13:34;;;;;;;;;;;;;;;;;;4894255;29;19938;-92
2023/07/15 06:16:01;;;;;;;;;;;;;;;;;;4889996;29;20309;-91
2023/07/15 06:18:29;;;;;;;;;;;;;;;;;;4888262;29;19931;-91
2023/07/15 06:20:57;;;;;;;;;;;;;;;;;;4902609;29;19938;-91
2023/07/15 06:23:25;;;;;;;;;;;;;;;;;;4904680;29;19927;-91
2023/07/15 06:25:53;;;;;;;;;;;;;;;;;;4910287;29;19928;-91
2023/07/15 06:28:21;;;;;;;;;;;;;;;;;;4909199;29;19939;-91
2023/07/15 06:30:50;;;;;;;;;;;;;;;;;;4906348;29;19927;-91
2023/07/15 06:33:17;;;;;;;;;;;;;;;;;;4905131;29;20050;-91
2023/07/15 06:35:45;;;;;;;;;;;;;;;;;;4899904;29;19935;-91
2023/07/15 06:38:13;;;;;;;;;;;;;;;;;;4909174;29;19928;-91
2023/07/15 06:40:41;;;;;;;;;;;;;;;;;;4910702;29;20445;-91
2023/07/15 06:43:09;;;;;;;;;;;;;;;;;;4909803;29;20418;-91
2023/07/15 06:45:37;;;;;;;;;;;;;;;;;;4902249;29;19931;-91
2023/07/15 06:48:05;;;;;;;;;;;;;;;;;;4905333;29;19935;-92
2023/07/15 06:50:32;;;;;;;;;;;;;;;;;;4910081;29;19934;-92
2023/07/15 06:53:00;;;;;;;;;;;;;;;;;;4890261;29;19951;-92
2023/07/15 06:55:28;;;;;;;;;;;;;;;;;;4911924;29;20684;-91
2023/07/15 06:57:56;;;;;;;;;;;;;;;;;;4905918;29;19935;-91
2023/07/15 07:00:24;;;;;;;;;;;;;;;;;;4900723;29;19939;-92
2023/07/15 07:02:52;;;;;;;;;;;;;;;;;;4906236;29;19927;-91
2023/07/15 07:05:20;;;;;;;;;;;;;;;;;;4901774;29;19927;-91
2023/07/15 07:07:48;;;;;;;;;;;;;;;;;;4909141;29;19934;-92
2023/07/15 07:10:15;;;;;;;;;;;;;;;;;;4887795;29;20383;-92
2023/07/15 07:12:43;;;;;;;;;;;;;;;;;;4881651;29;19978;-91
2023/07/15 07:15:11;;;;;;;;;;;;;;;;;;4903067;29;19931;-91
2023/07/15 07:17:39;;;;;;;;;;;;;;;;;;4906582;29;19934;-92
2023/07/15 07:20:07;;;;;;;;;;;;;;;;;;4893232;29;19927;-92
2023/07/15 07:22:35;;;;;;;;;;;;;;;;;;4903777;29;19935;-92
2023/07/15 07:25:14;;;;;;;;;;;;;;;;;;4911496;29;20390;-92
2023/07/15 07:27:46;;;;;;;;;;;;;;;;;;4895789;29;19939;-94
2023/07/15 07:30:14;;;;;;;;;;;;;;;;;;4903089;29;20441;-89
2023/07/15 07:32:48;;;;;;;;;;;;;;;;;;4892763;29;19938;-93
2023/07/15 07:35:28;;;;;;;;;;;;;;;;;;4901936;29;19928;-89
2023/07/15 07:37:58;;;;;;;;;;;;;;;;;;4887284;29;19935;-90
2023/07/15 07:40:30;;;;;;;;;;;;;;;;;;4899663;29;19928;-92
2023/07/15 07:42:58;;;;;;;;;;;;;;;;;;4907155;29;19934;-93
2023/07/15 07:45:26;;;;;;;;;;;;;;;;;;4903163;29;19934;-90
2023/07/15 07:48:04;;;;;;;;;;;;;;;;;;4899412;29;19934;-91
2023/07/15 07:50:32;;;;;;;;;;;;;;;;;;4882396;29;19938;-90
2023/07/15 07:53:07;;;;;;;;;;;;;;;;;;4889423;29;20294;-91
2023/07/15 07:55:36;;;;;;;;;;;;;;;;;;4900442;29;19928;-91
2023/07/15 07:58:05;;;;;;;;;;;;;;;;;;4899149;29;19935;-93
2023/07/15 08:00:42;;;;;;;;;;;;;;;;;;4901088;29;19934;-91
2023/07/15 08:03:13;;;;;;;;;;;;;;;;;;4895478;29;20390;-90
2023/07/15 08:05:47;;;;;;;;;;;;;;;;;;4900359;29;19927;-91
2023/07/15 08:08:21;;;;;;;;;;;;;;;;;;4901457;29;19927;-90
2023/07/15 08:10:49;;;;;;;;;;;;;;;;;;4886002;29;20399;-91
2023/07/15 08:13:17;;;;;;;;;;;;;;;;;;4899580;29;19927;-91
2023/07/15 08:15:49;;;;;;;;;;;;;;;;;;4886846;29;20301;-89
2023/07/15 08:21:05;;;;;;;;;;;;;;;;;;4904831;29;19934;-90
2023/07/15 08:30:56;;;;;;;;;;;;;;;;;;4847436;29;19938;-91
2023/07/15 08:33:24;;;;;;;;;;;;;;;;;;4899335;29;20351;-91
2023/07/15 08:35:52;;;;;;;;;;;;;;;;;;4906300;29;19931;-90
2023/07/15 08:38:23;;;;;;;;;;;;;;;;;;4900029;29;19931;-92
2023/07/15 08:40:51;;;;;;;;;;;;;;;;;;4904502;29;19938;-91
2023/07/15 08:43:19;;;;;;;;;;;;;;;;;;4897319;29;19947;-91
2023/07/15 08:46:00;;;;;;;;;;;;;;;;;;;;;
2023/07/15 08:48:28;;;;;;;;;;;;;;;;;;4888186;29;19928;-91
2023/07/15 08:50:56;;;;;;;;;;;;;;;;;;4902762;29;20402;-91
2023/07/15 08:53:24;;;;;;;;;;;;;;;;;;4897123;29;19934;-91
2023/07/15 08:55:55;;;;;;;;;;;;;;;;;;4895795;29;19938;-90
2023/07/15 08:58:30;;;;;;;;;;;;;;;;;;4894435;29;20528;-91
2023/07/15 09:00:58;;;;;;;;;;;;;;;;;;4900246;29;19934;-91
2023/07/15 09:03:42;;;;;;;;;;;;;;;;;;4882621;29;19931;-90
2023/07/15 09:06:12;;;;;;;;;;;;;;;;;;4995739;23;20080;-90
2023/07/15 09:08:40;;;;;;;;;;;;;;;;;;4915187;29;19938;-91
2023/07/15 09:11:08;;;;;;;;;;;;;;;;;;4892663;29;19934;-92
2023/07/15 09:13:36;;;;;;;;;;;;;;;;;;4913146;29;19934;-92
2023/07/15 09:16:04;;;;;;;;;;;;;;;;;;4911399;29;19926;-92
2023/07/15 09:18:32;;;;;;;;;;;;;;;;;;4931012;29;19935;-91
2023/07/15 09:21:08;;;;;;;;;;;;;;;;;;4940527;29;19927;-91
2023/07/15 09:24:12;;;;;;;;;;;;;;;;;;4927535;28;20333;-92
2023/07/15 09:26:39;;;;;;;;;;;;;;;;;;4922461;29;19915;-91
2023/07/15 09:29:07;;;;;;;;;;;;;;;;;;4923877;29;20014;-92
2023/07/15 09:31:35;;;;;;;;;;;;;;;;;;4912408;29;19927;-91
2023/07/15 09:34:03;;;;;;;;;;;;;;;;;;4931323;29;20279;-92
2023/07/15 09:36:34;;;;;;;;;;;;;;;;;;4932262;29;19927;-91
2023/07/15 09:39:02;;;;;;;;;;;;;;;;;;4931775;29;19938;-91
2023/07/15 09:41:30;;;;;;;;;;;;;;;;;;4925550;29;19935;-91
2023/07/15 09:43:57;;;;;;;;;;;;;;;;;;4929402;29;19935;-90
2023/07/15 09:46:27;;;;;;;;;;;;;;;;;;4931143;29;19933;-92
2023/07/15 09:48:55;;;;;;;;;;;;;;;;;;4939003;29;19923;-93
2023/07/15 09:51:23;;;;;;;;;;;;;;;;;;4923795;29;19927;-90
2023/07/15 09:53:51;;;;;;;;;;;;;;;;;;4912723;29;19926;-91
2023/07/15 09:56:23;;;;;;;;;;;;;;;;;;4912635;29;19934;-91
2023/07/15 09:58:51;;;;;;;;;;;;;;;;;;4928239;29;19934;-90
2023/07/15 10:01:19;;;;;;;;;;;;;;;;;;4915530;29;19927;-92
2023/07/15 10:03:47;;;;;;;;;;;;;;;;;;4913332;29;19937;-91
2023/07/15 10:06:15;;;;;;;;;;;;;;;;;;4916212;29;19934;-93
2023/07/15 10:08:48;;;;;;;;;;;;;;;;;;4917569;29;19930;-93
2023/07/15 10:11:18;;;;;;;;;;;;;;;;;;4928441;29;20385;-92
2023/07/15 10:13:46;;;;;;;;;;;;;;;;;;4934289;29;19927;-91
2023/07/15 10:16:14;;;;;;;;;;;;;;;;;;4928813;29;19927;-92
2023/07/15 10:21:37;;;;;;;;;;;;;;;;;;4921714;29;20016;-93
2023/07/15 10:24:05;;;;;;;;;;;;;;;;;;4931757;29;19927;-90
2023/07/15 10:26:35;;;;;;;;;;;;;;;;;;4937929;29;19927;-93
2023/07/15 10:29:04;;;;;;;;;;;;;;;;;;4934063;29;19927;-92
2023/07/15 10:31:34;;;;;;;;;;;;;;;;;;4930081;29;19927;-90
2023/07/15 10:34:02;;;;;;;;;;;;;;;;;;4910428;29;19931;-92
2023/07/15 10:36:33;;;;;;;;;;;;;;;;;;4933665;29;19927;-92
2023/07/15 10:39:00;;;;;;;;;;;;;;;;;;4912964;29;19928;-92
2023/07/15 10:41:28;;;;;;;;;;;;;;;;;;4920823;29;19933;-94
2023/07/15 10:43:56;;;;;;;;;;;;;;;;;;4932082;29;19926;-91
2023/07/15 10:46:24;;;;;;;;;;;;;;;;;;4922264;29;19927;-91
2023/07/15 10:48:53;;;;;;;;;;;;;;;;;;4927263;29;19927;-92
2023/07/15 10:51:27;;;;;;;;;;;;;;;;;;4918861;29;20310;-94
2023/07/15 10:53:55;;;;;;;;;;;;;;;;;;4929997;29;19927;-93
2023/07/15 10:56:23;;;;;;;;;;;;;;;;;;4931852;29;19934;-91
2023/07/15 10:58:51;;;;;;;;;;;;;;;;;;4914943;29;19931;-92
2023/07/15 11:01:24;;;;;;;;;;;;;;;;;;4919266;29;20394;-93
2023/07/15 11:03:55;;;;;;;;;;;;;;;;;;4932459;29;19934;-91
2023/07/15 11:06:23;;;;;;;;;;;;;;;;;;4933060;29;19938;-92
2023/07/15 11:08:51;;;;;;;;;;;;;;;;;;4936226;29;19934;-92
2023/07/15 11:11:19;;;;;;;;;;;;;;;;;;4916126;29;19934;-91
2023/07/15 11:13:49;;;;;;;;;;;;;;;;;;4930258;29;19926;-92
2023/07/15 11:16:20;;;;;;;;;;;;;;;;;;4921968;29;20564;-92
2023/07/15 11:18:58;;;;;;;;;;;;;;;;;;4915305;29;20417;-92
2023/07/15 11:21:28;;;;;;;;;;;;;;;;;;4934283;29;19927;-92
2023/07/15 11:23:56;;;;;;;;;;;;;;;;;;4936145;29;19926;-93
2023/07/15 11:26:24;;;;;;;;;;;;;;;;;;4934441;29;19927;-93
2023/07/15 11:28:52;;;;;;;;;;;;;;;;;;4932056;29;19941;-91
2023/07/15 11:31:21;;;;;;;;;;;;;;;;;;4920704;29;19927;-92
2023/07/15 11:33:57;;;;;;;;;;;;;;;;;;4933699;29;20514;-92
2023/07/15 11:36:25;;;;;;;;;;;;;;;;;;4915691;29;19934;-92
2023/07/15 11:38:53;;;;;;;;;;;;;;;;;;4916717;29;19938;-90
2023/07/15 11:41:22;;;;;;;;;;;;;;;;;;4934021;29;19934;-90
2023/07/15 11:43:50;;;;;;;;;;;;;;;;;;4915513;29;19931;-90
2023/07/15 11:46:18;;;;;;;;;;;;;;;;;;4915395;29;19927;-91
2023/07/15 11:48:46;;;;;;;;;;;;;;;;;;4932860;29;19941;-91
2023/07/15 11:51:17;;;;;;;;;;;;;;;;;;4932626;29;20385;-92
2023/07/15 11:53:45;;;;;;;;;;;;;;;;;;4927766;29;19949;-91
2023/07/15 11:56:12;;;;;;;;;;;;;;;;;;4920301;29;19930;-92
2023/07/15 11:58:46;;;;;;;;;;;;;;;;;;4914854;29;20021;-92
2023/07/15 12:01:22;;;;;;;;;;;;;;;;;;4909531;29;19938;-90
2023/07/15 12:03:50;;;;;;;;;;;;;;;;;;4927274;29;19931;-91
2023/07/15 12:06:18;;;;;;;;;;;;;;;;;;4932411;29;20417;-92
2023/07/15 12:08:49;;;;;;;;;;;;;;;;;;4917463;29;20380;-93
2023/07/15 12:11:18;;;;;;;;;;;;;;;;;;4932242;29;20413;-91
2023/07/15 12:13:48;;;;;;;;;;;;;;;;;;4935714;29;19934;-89
2023/07/15 12:16:16;;;;;;;;;;;;;;;;;;4931065;29;19934;-91
2023/07/15 12:18:44;;;;;;;;;;;;;;;;;;4930165;29;20032;-91
2023/07/15 12:21:11;;;;;;;;;;;;;;;;;;4929450;29;19942;-90
2023/07/15 12:23:50;;;;;;;;;;;;;;;;;;4933620;29;19933;-93
2023/07/15 12:26:24;;;;;;;;;;;;;;;;;;4914284;29;19927;-90
2023/07/15 12:29:03;;;;;;;;;;;;;;;;;;4933713;29;20413;-92
2023/07/15 12:31:34;;;;;;;;;;;;;;;;;;4936119;29;19931;-91
2023/07/15 12:37:25;;;;;;;;;;;;;;;;;;4887350;29;19927;-90
2023/07/15 12:39:53;;;;;;;;;;;;;;;;;;4878387;29;19927;-91
2023/07/15 12:42:21;;;;;;;;;;;;;;;;;;4889484;29;19931;-91
2023/07/15 12:44:52;;;;;;;;;;;;;;;;;;4895181;29;19939;-91
2023/07/15 12:47:22;;;;;;;;;;;;;;;;;;4889803;29;19932;-91
2023/07/15 12:49:50;;;;;;;;;;;;;;;;;;4884943;29;19935;-92
2023/07/15 12:52:18;;;;;;;;;;;;;;;;;;4877955;29;19927;-91
2023/07/15 12:54:47;;;;;;;;;;;;;;;;;;4894564;29;20450;-91
2023/07/15 12:57:18;;;;;;;;;;;;;;;;;;4896222;29;19955;-94
2023/07/15 12:59:51;;;;;;;;;;;;;;;;;;4885905;29;19936;-91
2023/07/15 13:02:19;;;;;;;;;;;;;;;;;;4888297;29;20402;-91
2023/07/15 13:07:15;;;;;;;;;;;;;;;;;;4916923;29;19950;-83
2023/07/15 13:09:47;;;;;;;;;;;;;;;;;;4917070;29;20291;-80
2023/07/15 13:12:15;;;;;;;;;;;;;;;;;;4917219;29;20372;-83
2023/07/15 13:14:42;;;;;;;;;;;;;;;;;;4917274;29;19931;-82
2023/07/15 13:17:15;;;;;;;;;;;;;;;;;;4912451;29;20410;-82
2023/07/15 13:19:42;;;;;;;;;;;;;;;;;;4914775;29;19935;-83
2023/07/15 13:22:10;;;;;;;;;;;;;;;;;;4896563;29;19938;-84
2023/07/15 13:24:38;;;;;;;;;;;;;;;;;;4913050;29;19938;-84
2023/07/15 13:27:05;;;;;;;;;;;;;;;;;;4893267;29;19927;-79
2023/07/15 13:29:33;;;;;;;;;;;;;;;;;;4894498;29;20691;-83
2023/07/15 13:32:05;;;;;;;;;;;;;;;;;;4890893;29;19935;-83
2023/07/15 13:34:38;;;;;;;;;;;;;;;;;;4899254;29;19935;-84
2023/07/15 13:37:06;;;;;;;;;;;;;;;;;;4875785;29;19942;-83
2023/07/15 13:39:38;;;;;;;;;;;;;;;;;;4889775;29;19935;-82
2023/07/15 13:42:06;;;;;;;;;;;;;;;;;;4883427;29;19935;-81
2023/07/15 13:44:33;;;;;;;;;;;;;;;;;;4906360;29;19939;-81
2023/07/15 13:47:01;;;;;;;;;;;;;;;;;;4921603;29;20384;-82
2023/07/15 13:49:28;;;;;;;;;;;;;;;;;;4916505;29;19934;-78
2023/07/15 13:51:56;;;;;;;;;;;;;;;;;;4912006;29;19927;-82
2023/07/15 13:54:23;;;;;;;;;;;;;;;;;;4898042;29;19935;-81
2023/07/15 13:56:51;;;;;;;;;;;;;;;;;;4915468;29;19935;-82
2023/07/15 13:59:18;;;;;;;;;;;;;;;;;;4918218;29;19927;-81
2023/07/15 14:01:46;;;;;;;;;;;;;;;;;;4914576;29;19927;-80
2023/07/15 14:04:13;;;;;;;;;;;;;;;;;;4917467;29;19935;-79
2023/07/15 14:06:41;;;;;;;;;;;;;;;;;;4916381;29;20315;-81
2023/07/15 14:09:08;;;;;;;;;;;;;;;;;;4896250;29;20285;-81
2023/07/15 14:11:36;;;;;;;;;;;;;;;;;;4914362;29;19935;-81
2023/07/15 14:14:08;;;;;;;;;;;;;;;;;;4917068;29;20299;-81
2023/07/15 14:16:36;;;;;;;;;;;;;;;;;;4921073;29;19938;-82
2023/07/15 14:19:03;;;;;;;;;;;;;;;;;;4905265;29;20012;-82
2023/07/15 14:21:31;;;;;;;;;;;;;;;;;;4912673;29;19942;-81
2023/07/15 14:24:03;;;;;;;;;;;;;;;;;;4908905;29;19947;-81
2023/07/15 14:26:31;;;;;;;;;;;;;;;;;;4915534;29;20328;-81
2023/07/15 14:28:58;;;;;;;;;;;;;;;;;;4914084;29;20009;-81
2023/07/15 14:31:26;;;;;;;;;;;;;;;;;;4917524;29;19927;-83
2023/07/15 14:33:54;;;;;;;;;;;;;;;;;;4915337;29;20008;-81
2023/07/15 14:36:21;;;;;;;;;;;;;;;;;;4913421;29;19931;-81
2023/07/15 14:38:54;;;;;;;;;;;;;;;;;;4914975;29;19934;-83
2023/07/15 14:41:22;;;;;;;;;;;;;;;;;;4916222;29;19931;-81
2023/07/15 14:43:49;;;;;;;;;;;;;;;;;;4901039;29;20295;-81
2023/07/15 14:46:22;;;;;;;;;;;;;;;;;;4915258;29;19938;-81
2023/07/15 14:48:49;;;;;;;;;;;;;;;;;;4915363;29;19954;-81
2023/07/15 14:51:22;;;;;;;;;;;;;;;;;;4923727;29;19934;-81
2023/07/15 14:53:49;;;;;;;;;;;;;;;;;;4920439;29;19930;-82
2023/07/15 14:56:17;;;;;;;;;;;;;;;;;;4922367;29;20295;-82
2023/07/15 14:58:44;;;;;;;;;;;;;;;;;;4919062;29;19935;-81
2023/07/15 15:01:17;;;;;;;;;;;;;;;;;;4919253;29;19935;-82
2023/07/15 15:03:45;;;;;;;;;;;;;;;;;;4923725;29;19954;-83
2023/07/15 15:06:12;;;;;;;;;;;;;;;;;;4894411;29;20869;-85
2023/07/15 15:08:40;;;;;;;;;;;;;;;;;;4879818;29;19934;-83
2023/07/15 15:11:12;;;;;;;;;;;;;;;;;;4897699;29;19935;-82
2023/07/15 15:13:40;;;;;;;;;;;;;;;;;;4898297;29;19942;-87
2023/07/15 15:16:10;;;;;;;;;;;;;;;;;;4902465;29;20410;-85
2023/07/15 15:18:38;;;;;;;;;;;;;;;;;;4892366;29;19942;-86
2023/07/15 15:21:06;;;;;;;;;;;;;;;;;;4903473;29;19931;-85
2023/07/15 15:23:33;;;;;;;;;;;;;;;;;;4899432;29;20273;-84
2023/07/15 15:26:06;;;;;;;;;;;;;;;;;;4900639;29;20623;-86
2023/07/15 15:28:34;;;;;;;;;;;;;;;;;;4891321;29;19935;-86
2023/07/15 15:31:02;;;;;;;;;;;;;;;;;;4880613;29;19935;-86
2023/07/15 15:33:29;;;;;;;;;;;;;;;;;;4880294;29;19942;-86
2023/07/15 15:35:57;;;;;;;;;;;;;;;;;;4900585;29;19935;-85
2023/07/15 15:38:24;;;;;;;;;;;;;;;;;;4901411;29;19935;-84
2023/07/15 15:40:52;;;;;;;;;;;;;;;;;;4896860;29;19946;-85
2023/07/15 15:43:20;;;;;;;;;;;;;;;;;;4896970;29;19938;-83
2023/07/15 15:45:47;;;;;;;;;;;;;;;;;;4897796;29;19946;-86
2023/07/15 15:48:15;;;;;;;;;;;;;;;;;;4893940;29;19935;-83
2023/07/15 15:50:42;;;;;;;;;;;;;;;;;;4893831;29;19936;-84
2023/07/15 15:53:10;;;;;;;;;;;;;;;;;;4882661;29;20239;-84
2023/07/15 15:55:37;;;;;;;;;;;;;;;;;;4878801;29;21038;-83
2023/07/15 15:58:05;;;;;;;;;;;;;;;;;;4878352;29;19942;-84
2023/07/15 16:00:38;;;;;;;;;;;;;;;;;;4875789;29;19942;-86
2023/07/15 16:03:05;;;;;;;;;;;;;;;;;;4879148;29;19935;-85
2023/07/15 16:05:33;;;;;;;;;;;;;;;;;;4889497;29;19935;-84
2023/07/15 16:08:01;;;;;;;;;;;;;;;;;;4891160;29;19942;-85
2023/07/15 16:10:28;;;;;;;;;;;;;;;;;;4879250;29;19935;-85
2023/07/15 16:13:01;;;;;;;;;;;;;;;;;;4879162;29;19942;-85
2023/07/15 16:15:28;;;;;;;;;;;;;;;;;;4874798;29;19941;-85
2023/07/15 16:18:01;;;;;;;;;;;;;;;;;;4875311;29;19935;-85
2023/07/15 16:20:36;;;;;;;;;;;;;;;;;;4889482;29;19942;-83
2023/07/15 16:23:04;;;;;;;;;;;;;;;;;;4871855;29;19942;-86
2023/07/15 16:25:32;;;;;;;;;;;;;;;;;;4881557;29;19935;-85
2023/07/15 16:27:59;;;;;;;;;;;;;;;;;;4889071;29;19935;-85
2023/07/15 16:30:27;;;;;;;;;;;;;;;;;;4884617;29;20180;-84
2023/07/15 16:32:55;;;;;;;;;;;;;;;;;;4882518;29;19973;-85
2023/07/15 16:35:23;;;;;;;;;;;;;;;;;;4884965;29;20300;-85
2023/07/15 16:37:55;;;;;;;;;;;;;;;;;;4888238;29;19942;-84
2023/07/15 16:40:23;;;;;;;;;;;;;;;;;;4891237;29;20372;-86
2023/07/15 16:42:50;;;;;;;;;;;;;;;;;;4881258;29;19935;-85
2023/07/15 16:45:18;;;;;;;;;;;;;;;;;;4883367;29;19936;-86
2023/07/15 16:47:45;;;;;;;;;;;;;;;;;;4886247;29;19935;-85
2023/07/15 16:50:15;;;;;;;;;;;;;;;;;;4886513;29;19935;-84
2023/07/15 16:52:42;;;;;;;;;;;;;;;;;;4881681;29;19942;-85
2023/07/15 16:55:15;;;;;;;;;;;;;;;;;;4886450;29;20235;-85
2023/07/15 16:57:42;;;;;;;;;;;;;;;;;;4868406;29;19942;-84
2023/07/15 17:00:10;;;;;;;;;;;;;;;;;;4865542;29;20406;-85
2023/07/15 17:02:38;;;;;;;;;;;;;;;;;;4876487;29;20288;-86
2023/07/15 17:05:05;;;;;;;;;;;;;;;;;;4875439;29;19937;-84
2023/07/15 17:07:33;;;;;;;;;;;;;;;;;;4887483;29;19935;-83
2023/07/15 17:10:01;;;;;;;;;;;;;;;;;;4882800;29;19942;-84
2023/07/15 17:12:28;;;;;;;;;;;;;;;;;;4889143;29;19943;-83
2023/07/15 17:14:56;;;;;;;;;;;;;;;;;;4886167;29;19942;-84
2023/07/15 17:17:23;;;;;;;;;;;;;;;;;;4884416;29;20470;-82
2023/07/15 17:19:51;;;;;;;;;;;;;;;;;;4885850;29;19935;-82